createdAt,value
2023-03-12T00:01:30.644Z,21.50
2023-03-12T00:03:57.189Z,22.70
2023-03-12T00:06:24.321Z,23.70
2023-03-12T00:08:50.701Z,25.10
2023-03-12T00:11:19.413Z,25.90
2023-03-12T00:13:49.904Z,22.07
2023-03-12T00:16:16.365Z,20.67
2023-03-12T00:18:44.183Z,21.80
2023-03-12T00:21:10.998Z,19.63
2023-03-12T00:23:37.427Z,26.97
2023-03-12T00:26:06.959Z,23.37
2023-03-12T00:28:34.865Z,25.40
2023-03-12T00:31:02.104Z,20.73
2023-03-12T00:33:29.178Z,22.10
2023-03-12T00:35:56.655Z,20.83
2023-03-12T00:38:23.102Z,18.40
2023-03-12T00:40:49.458Z,23.57
2023-03-12T00:43:15.853Z,19.60
2023-03-12T00:45:42.199Z,19.20
2023-03-12T00:48:09.013Z,18.50
2023-03-12T00:50:35.526Z,20.30
2023-03-12T00:53:01.880Z,21.10
2023-03-12T00:55:28.230Z,21.60
2023-03-12T00:57:54.613Z,20.60
2023-03-12T01:00:21.391Z,21.67
2023-03-12T01:02:47.986Z,21.70
2023-03-12T01:05:14.828Z,17.07
2023-03-12T01:07:41.288Z,18.10
2023-03-12T01:10:08.974Z,18.10
2023-03-12T01:12:35.480Z,18.40
2023-03-12T01:15:01.902Z,16.60
2023-03-12T01:17:28.253Z,16.83
2023-03-12T01:19:54.569Z,17.43
2023-03-12T01:22:20.935Z,21.23
2023-03-12T01:24:47.313Z,21.07
2023-03-12T01:27:13.664Z,20.03
2023-03-12T01:29:40.059Z,23.83
2023-03-12T01:32:06.759Z,17.17
2023-03-12T01:34:35.319Z,19.83
2023-03-12T01:37:02.304Z,22.07
2023-03-12T01:39:28.742Z,23.90
2023-03-12T01:41:55.432Z,23.20
2023-03-12T01:44:24.490Z,26.50
2023-03-12T01:46:50.815Z,26.00
2023-03-12T01:49:25.629Z,24.30
2023-03-12T01:51:57.016Z,24.63
2023-03-12T01:54:38.523Z,24.93
2023-03-12T01:57:08.372Z,27.63
2023-03-12T01:59:42.151Z,25.37
2023-03-12T02:02:09.220Z,27.73
2023-03-12T02:04:38.629Z,32.00
2023-03-12T02:07:07.167Z,21.97
2023-03-12T02:09:36.174Z,23.07
2023-03-12T02:12:03.100Z,20.50
2023-03-12T02:14:29.621Z,22.77
2023-03-12T02:16:56.238Z,25.43
2023-03-12T02:19:45.864Z,22.10
2023-03-12T02:22:14.001Z,25.33
2023-03-12T02:25:03.836Z,24.07
2023-03-12T02:27:33.493Z,23.97
2023-03-12T02:30:01.458Z,23.47
2023-03-12T02:32:34.061Z,19.40
2023-03-12T02:35:01.504Z,20.80
2023-03-12T02:37:27.928Z,23.90
2023-03-12T02:40:07.408Z,19.93
2023-03-12T02:42:34.113Z,20.77
2023-03-12T02:45:01.891Z,19.43
2023-03-12T02:47:28.246Z,22.40
2023-03-12T02:49:54.656Z,18.50
2023-03-12T02:52:21.001Z,18.50
2023-03-12T02:54:47.326Z,17.30
2023-03-12T02:57:13.784Z,17.53
2023-03-12T02:59:40.149Z,16.73
2023-03-12T03:02:06.862Z,15.97
2023-03-12T03:04:34.860Z,17.43
2023-03-12T03:07:01.638Z,17.93
2023-03-12T03:09:28.000Z,22.90
2023-03-12T03:11:54.329Z,15.50
2023-03-12T03:14:20.763Z,19.13
2023-03-12T03:16:47.091Z,15.90
2023-03-12T03:19:13.712Z,15.77
2023-03-12T03:21:40.203Z,18.20
2023-03-12T03:24:06.733Z,21.27
2023-03-12T03:26:33.249Z,17.20
2023-03-12T03:28:59.629Z,17.20
2023-03-12T03:31:26.146Z,21.07
2023-03-12T03:33:52.543Z,20.13
2023-03-12T03:36:19.194Z,19.03
2023-03-12T03:38:49.165Z,23.77
2023-03-12T03:41:20.448Z,24.00
2023-03-12T03:43:47.279Z,18.47
2023-03-12T03:46:14.731Z,17.63
2023-03-12T03:48:41.782Z,20.17
2023-03-12T03:51:09.674Z,19.20
2023-03-12T03:53:36.186Z,18.13
2023-03-12T03:56:10.891Z,16.03
2023-03-12T03:58:37.401Z,18.40
2023-03-12T04:01:04.205Z,16.87
2023-03-12T04:03:30.665Z,21.53
2023-03-12T04:05:59.973Z,18.03
2023-03-12T04:08:26.940Z,21.47
2023-03-12T04:10:53.445Z,15.20
2023-03-12T04:13:19.904Z,18.20
2023-03-12T04:15:53.687Z,15.07
2023-03-12T04:18:20.639Z,15.07
2023-03-12T04:20:47.005Z,19.30
2023-03-12T04:23:13.352Z,19.63
2023-03-12T04:25:39.903Z,15.47
2023-03-12T04:28:06.846Z,13.70
2023-03-12T04:30:33.325Z,17.13
2023-03-12T04:32:59.695Z,17.30
2023-03-12T04:35:26.033Z,14.17
2023-03-12T04:37:52.436Z,20.50
2023-03-12T04:40:19.881Z,16.30
2023-03-12T04:42:46.511Z,12.57
2023-03-12T04:45:12.887Z,14.63
2023-03-12T04:47:39.248Z,13.50
2023-03-12T04:50:06.181Z,12.50
2023-03-12T04:52:32.547Z,9.77
2023-03-12T04:55:00.342Z,10.20
2023-03-12T04:57:26.823Z,9.63
2023-03-12T04:59:53.183Z,10.23
2023-03-12T05:02:19.751Z,11.43
2023-03-12T05:04:46.170Z,10.90
2023-03-12T05:07:12.591Z,11.37
2023-03-12T05:09:38.944Z,10.63
2023-03-12T05:12:05.674Z,12.63
2023-03-12T05:14:32.038Z,12.40
2023-03-12T05:16:58.425Z,12.63
2023-03-12T05:19:24.762Z,13.00
2023-03-12T05:21:51.184Z,15.07
2023-03-12T05:24:18.878Z,17.20
2023-03-12T05:26:45.217Z,13.40
2023-03-12T05:29:11.575Z,12.77
2023-03-12T05:31:38.029Z,12.80
2023-03-12T05:34:05.180Z,13.60
2023-03-12T05:36:31.565Z,12.07
2023-03-12T05:38:57.952Z,11.80
2023-03-12T05:41:29.218Z,13.60
2023-03-12T05:43:57.134Z,15.73
2023-03-12T05:46:25.123Z,15.57
2023-03-12T05:48:51.567Z,14.23
2023-03-12T05:51:18.460Z,13.97
2023-03-12T05:53:45.198Z,17.90
2023-03-12T05:56:14.869Z,13.20
2023-03-12T05:58:41.651Z,14.00
2023-03-12T06:01:16.765Z,16.07
2023-03-12T06:03:43.333Z,15.90
2023-03-12T06:06:10.569Z,15.27
2023-03-12T06:08:37.107Z,14.37
2023-03-12T06:11:03.610Z,13.33
2023-03-12T06:13:30.257Z,15.03
2023-03-12T06:16:05.574Z,14.40
2023-03-12T06:18:33.994Z,16.20
2023-03-12T06:21:21.921Z,14.30
2023-03-12T06:23:49.137Z,18.33
2023-03-12T06:26:16.649Z,15.27
2023-03-12T06:28:43.220Z,18.57
2023-03-12T06:31:09.715Z,16.37
2023-03-12T06:33:36.188Z,15.77
2023-03-12T06:36:05.227Z,15.60
2023-03-12T06:38:31.944Z,18.50
2023-03-12T06:41:04.137Z,16.87
2023-03-12T06:43:32.422Z,19.17
2023-03-12T06:45:59.887Z,18.67
2023-03-12T06:48:27.954Z,16.50
2023-03-12T06:50:54.595Z,18.67
2023-03-12T06:53:21.755Z,18.60
2023-03-12T06:55:50.724Z,20.97
2023-03-12T06:58:17.793Z,18.60
2023-03-12T07:00:44.497Z,21.53
2023-03-12T07:03:10.825Z,18.53
2023-03-12T07:05:37.170Z,21.40
2023-03-12T07:08:03.713Z,21.50
2023-03-12T07:10:30.483Z,20.70
2023-03-12T07:12:56.944Z,23.03
2023-03-12T07:15:23.734Z,24.30
2023-03-12T07:17:50.459Z,27.27
2023-03-12T07:20:17.081Z,21.67
2023-03-12T07:22:43.394Z,27.97
2023-03-12T07:25:09.971Z,20.83
2023-03-12T07:27:36.377Z,20.03
2023-03-12T07:30:03.260Z,23.10
2023-03-12T07:32:29.648Z,24.13
2023-03-12T07:34:56.015Z,29.40
2023-03-12T07:37:22.466Z,25.27
2023-03-12T07:39:52.143Z,31.87
2023-03-12T07:42:18.558Z,30.37
2023-03-12T07:44:44.877Z,30.13
2023-03-12T07:47:23.122Z,35.13
2023-03-12T07:49:50.981Z,32.00
2023-03-12T07:52:20.660Z,34.60
2023-03-12T07:54:47.726Z,35.83
2023-03-12T07:57:14.591Z,36.43
2023-03-12T07:59:41.619Z,37.40
2023-03-12T08:02:10.680Z,38.40
2023-03-12T08:04:37.285Z,42.47
2023-03-12T08:07:03.821Z,43.27
2023-03-12T08:09:30.302Z,45.00
2023-03-12T08:11:56.656Z,40.90
2023-03-12T08:14:23.083Z,43.17
2023-03-12T08:16:50.004Z,39.83
2023-03-12T08:19:16.435Z,40.60
2023-03-12T08:21:42.791Z,38.73
2023-03-12T08:24:09.148Z,41.07
2023-03-12T08:26:35.469Z,35.10
2023-03-12T08:29:01.837Z,37.73
2023-03-12T08:31:29.248Z,38.73
2023-03-12T08:33:55.609Z,38.47
2023-03-12T08:36:22.552Z,33.93
2023-03-12T08:38:49.130Z,36.33
2023-03-12T08:41:15.529Z,34.10
2023-03-12T08:43:41.946Z,31.40
2023-03-12T08:46:09.826Z,31.33
2023-03-12T08:48:37.452Z,29.37
2023-03-12T08:51:05.709Z,34.03
2023-03-12T08:53:34.199Z,31.50
2023-03-12T08:56:01.496Z,27.47
2023-03-12T08:58:29.376Z,27.93
2023-03-12T09:00:56.580Z,31.50
2023-03-12T09:03:23.745Z,30.63
2023-03-12T09:05:51.271Z,26.87
2023-03-12T09:08:17.907Z,32.90
2023-03-12T09:10:49.937Z,32.07
2023-03-12T09:13:16.474Z,28.93
2023-03-12T09:15:42.821Z,23.93
2023-03-12T09:18:09.386Z,28.20
2023-03-12T09:20:35.907Z,25.67
2023-03-12T09:23:02.223Z,21.03
2023-03-12T09:25:28.549Z,23.80
2023-03-12T09:27:54.890Z,25.23
2023-03-12T09:30:22.194Z,26.93
2023-03-12T09:32:48.954Z,29.80
2023-03-12T09:35:16.227Z,23.10
2023-03-12T09:37:42.705Z,28.77
2023-03-12T09:40:16.283Z,23.73
2023-03-12T09:43:18.738Z,34.33
2023-03-12T09:45:47.485Z,28.90
2023-03-12T09:48:33.153Z,28.57
2023-03-12T09:51:06.021Z,25.50
2023-03-12T09:53:48.540Z,25.10
2023-03-12T09:56:17.829Z,22.30
2023-03-12T09:58:48.418Z,22.57
2023-03-12T10:01:32.960Z,24.50
2023-03-12T10:04:17.977Z,22.93
2023-03-12T10:07:11.953Z,22.50
2023-03-12T10:09:45.855Z,23.27
2023-03-12T10:12:34.466Z,22.67
2023-03-12T10:15:14.420Z,27.63
2023-03-12T10:18:18.866Z,28.60
2023-03-12T10:21:07.602Z,28.60
2023-03-12T10:23:46.272Z,31.17
2023-03-12T10:26:47.366Z,23.60
2023-03-12T10:29:21.530Z,30.70
2023-03-12T10:32:02.386Z,28.80
2023-03-12T10:34:42.425Z,25.93
2023-03-12T10:37:25.687Z,23.87
2023-03-12T10:39:54.044Z,25.10
2023-03-12T10:42:23.028Z,23.60
2023-03-12T10:44:53.945Z,21.73
2023-03-12T10:47:34.699Z,21.57
2023-03-12T10:50:21.943Z,23.23
2023-03-12T10:52:50.977Z,23.53
2023-03-12T10:55:30.652Z,17.13
2023-03-12T10:57:57.228Z,19.20
2023-03-12T11:00:27.007Z,19.53
2023-03-12T11:03:03.612Z,18.20
2023-03-12T11:05:35.676Z,16.17
2023-03-12T11:08:04.169Z,15.73
2023-03-12T11:10:46.004Z,15.10
2023-03-12T11:13:33.675Z,10.57
2023-03-12T11:16:30.057Z,12.60
2023-03-12T11:19:03.869Z,13.23
2023-03-12T11:21:33.069Z,12.30
2023-03-12T11:24:04.617Z,8.57
2023-03-12T11:26:45.761Z,13.00
2023-03-12T11:29:39.967Z,7.40
2023-03-12T11:32:06.494Z,7.10
2023-03-12T11:34:35.328Z,6.20
2023-03-12T11:37:10.999Z,4.23
2023-03-12T11:39:49.307Z,5.47
2023-03-12T11:42:35.882Z,4.90
2023-03-12T11:45:24.090Z,5.90
2023-03-12T11:48:38.303Z,5.60
2023-03-12T11:51:35.943Z,7.03
2023-03-12T11:54:12.056Z,5.20
2023-03-12T11:56:48.827Z,9.07
2023-03-12T11:59:33.836Z,9.83
2023-03-12T12:02:34.408Z,9.93
2023-03-12T12:05:08.786Z,12.77
2023-03-12T12:07:41.501Z,7.53
2023-03-12T12:10:22.612Z,9.00
2023-03-12T12:13:06.353Z,6.90
2023-03-12T12:15:51.847Z,7.93
2023-03-12T12:18:55.787Z,4.80
2023-03-12T12:21:54.232Z,7.00
2023-03-12T12:24:39.924Z,14.67
2023-03-12T12:27:24.350Z,11.83
2023-03-12T12:30:04.495Z,5.37
2023-03-12T12:32:33.877Z,8.30
2023-03-12T12:35:38.493Z,9.53
2023-03-12T12:38:16.369Z,5.27
2023-03-12T12:40:49.119Z,10.43
2023-03-12T12:43:25.419Z,6.57
2023-03-12T12:45:54.901Z,13.20
2023-03-12T12:48:26.676Z,6.57
2023-03-12T12:50:54.362Z,10.90
2023-03-12T12:53:54.136Z,15.90
2023-03-12T12:56:28.349Z,11.67
2023-03-12T12:59:03.475Z,11.03
2023-03-12T13:01:32.021Z,7.87
2023-03-12T13:04:06.986Z,16.20
2023-03-12T13:07:16.855Z,9.30
2023-03-12T13:09:50.689Z,9.33
2023-03-12T13:12:41.926Z,10.87
2023-03-12T13:15:44.811Z,14.07
2023-03-12T13:18:24.313Z,9.73
2023-03-12T13:20:53.343Z,7.70
2023-03-12T13:23:53.990Z,15.40
2023-03-12T13:26:27.161Z,6.70
2023-03-12T13:28:56.978Z,7.03
2023-03-12T13:31:29.095Z,8.80
2023-03-12T13:34:19.859Z,7.23
2023-03-12T13:36:50.316Z,8.97
2023-03-12T13:39:16.590Z,6.73
2023-03-12T13:41:45.613Z,8.00
2023-03-12T13:44:39.062Z,11.60
2023-03-12T13:47:11.386Z,10.07
2023-03-12T13:49:46.259Z,8.53
2023-03-12T13:52:25.853Z,11.90
2023-03-12T13:55:07.780Z,3.73
2023-03-12T13:57:44.385Z,4.73
2023-03-12T14:00:29.107Z,3.73
2023-03-12T14:03:03.643Z,7.47
2023-03-12T14:06:04.881Z,6.20
2023-03-12T14:08:50.060Z,4.53
2023-03-12T14:11:34.979Z,6.43
2023-03-12T14:14:20.534Z,5.47
2023-03-12T14:16:49.791Z,4.43
2023-03-12T14:19:19.556Z,10.17
2023-03-12T14:21:48.857Z,7.93
2023-03-12T14:24:24.402Z,6.17
2023-03-12T14:26:51.757Z,7.47
2023-03-12T14:29:25.185Z,4.77
2023-03-12T14:31:54.558Z,6.07
2023-03-12T14:34:24.233Z,3.10
2023-03-12T14:37:00.345Z,6.63
2023-03-12T14:40:05.547Z,5.70
2023-03-12T14:42:36.116Z,12.67
2023-03-12T14:45:11.971Z,8.27
2023-03-12T14:47:47.058Z,6.80
2023-03-12T14:50:27.693Z,6.67
2023-03-12T14:52:54.987Z,5.70
2023-03-12T14:55:25.252Z,10.47
2023-03-12T14:58:04.656Z,7.47
2023-03-12T15:00:31.750Z,5.70
2023-03-12T15:03:02.833Z,5.80
2023-03-12T15:05:29.281Z,9.60
2023-03-12T15:08:01.862Z,4.27
2023-03-12T15:10:30.759Z,10.93
2023-03-12T15:12:59.802Z,8.50
2023-03-12T15:15:36.122Z,11.00
2023-03-12T15:18:16.021Z,5.47
2023-03-12T15:20:42.992Z,4.80
2023-03-12T15:23:13.077Z,5.87
2023-03-12T15:25:39.577Z,7.47
2023-03-12T15:28:14.977Z,7.10
2023-03-12T15:30:43.044Z,5.23
2023-03-12T15:33:15.236Z,7.33
2023-03-12T15:36:28.396Z,3.90
2023-03-12T15:39:05.722Z,4.23
2023-03-12T15:41:40.210Z,8.13
2023-03-12T15:44:06.743Z,8.70
2023-03-12T15:46:33.310Z,12.60
2023-03-12T15:49:00.896Z,5.70
2023-03-12T15:51:39.530Z,6.20
2023-03-12T15:54:24.316Z,7.90
2023-03-12T15:56:50.852Z,6.40
2023-03-12T15:59:17.148Z,9.67
2023-03-12T16:01:46.096Z,2.40
2023-03-12T16:04:12.849Z,7.70
2023-03-12T16:06:39.552Z,6.63
2023-03-12T16:09:06.031Z,7.37
2023-03-12T16:11:35.540Z,5.20
2023-03-12T16:14:05.542Z,4.43
2023-03-12T16:16:32.049Z,3.33
2023-03-12T16:18:58.481Z,3.33
2023-03-12T16:21:24.953Z,4.63
2023-03-12T16:23:51.326Z,2.80
2023-03-12T16:26:17.877Z,2.63
2023-03-12T16:28:44.639Z,4.93
2023-03-12T16:31:15.402Z,4.83
2023-03-12T16:33:42.263Z,7.17
2023-03-12T16:36:16.976Z,4.23
2023-03-12T16:38:44.502Z,10.40
2023-03-12T16:41:16.980Z,3.50
2023-03-12T16:43:51.179Z,7.90
2023-03-12T16:46:20.441Z,3.60
2023-03-12T16:48:51.296Z,5.20
2023-03-12T16:51:17.628Z,4.80
2023-03-12T16:53:44.182Z,5.43
2023-03-12T16:56:17.282Z,8.00
2023-03-12T16:58:44.205Z,4.40
2023-03-12T17:01:15.459Z,12.40
2023-03-12T17:03:45.398Z,8.80
2023-03-12T17:06:18.417Z,8.33
2023-03-12T17:08:45.905Z,6.73
2023-03-12T17:11:24.621Z,8.40
2023-03-12T17:13:57.641Z,10.13
2023-03-12T17:16:24.995Z,5.37
2023-03-12T17:18:51.557Z,5.50
2023-03-12T17:21:19.269Z,13.43
2023-03-12T17:23:47.748Z,6.93
2023-03-12T17:26:14.073Z,6.87
2023-03-12T17:28:40.431Z,6.97
2023-03-12T17:31:07.233Z,6.13
2023-03-12T17:33:33.710Z,7.20
2023-03-12T17:36:03.618Z,9.60
2023-03-12T17:38:30.475Z,10.53
2023-03-12T17:40:57.672Z,7.53
2023-03-12T17:43:24.176Z,6.73
2023-03-12T17:45:51.361Z,8.67
2023-03-12T17:48:18.060Z,12.30
2023-03-12T17:50:44.732Z,9.63
2023-03-12T17:53:11.971Z,7.67
2023-03-12T17:55:38.314Z,6.13
2023-03-12T17:58:06.200Z,3.80
2023-03-12T18:00:33.065Z,13.87
2023-03-12T18:02:59.495Z,6.93
2023-03-12T18:05:26.181Z,9.40
2023-03-12T18:07:52.518Z,6.77
2023-03-12T18:10:18.980Z,8.20
2023-03-12T18:12:45.321Z,6.17
2023-03-12T18:15:13.822Z,7.13
2023-03-12T18:17:41.412Z,7.03
2023-03-12T18:20:16.593Z,13.27
2023-03-12T18:22:46.133Z,9.77
2023-03-12T18:25:12.745Z,8.10
2023-03-12T18:27:39.166Z,11.00
2023-03-12T18:30:08.241Z,10.50
2023-03-12T18:32:35.049Z,12.40
2023-03-12T18:35:01.770Z,11.90
2023-03-12T18:37:28.089Z,10.33
2023-03-12T18:39:54.518Z,6.30
2023-03-12T18:42:20.879Z,12.87
2023-03-12T18:44:47.254Z,17.53
2023-03-12T18:47:13.629Z,11.53
2023-03-12T18:49:40.226Z,11.00
2023-03-12T18:52:06.582Z,7.23
2023-03-12T18:54:33.644Z,6.07
2023-03-12T18:57:00.450Z,5.00
2023-03-12T18:59:27.015Z,12.67
2023-03-12T19:01:53.426Z,10.40
2023-03-12T19:04:19.921Z,7.10
2023-03-12T19:06:51.252Z,6.27
2023-03-12T19:09:18.700Z,11.50
2023-03-12T19:11:47.531Z,6.30
2023-03-12T19:14:14.181Z,8.97
2023-03-12T19:16:40.644Z,10.97
2023-03-12T19:19:07.017Z,4.90
2023-03-12T19:21:33.417Z,6.97
2023-03-12T19:23:59.775Z,5.23
2023-03-12T19:26:26.144Z,4.80
2023-03-12T19:28:52.508Z,8.37
2023-03-12T19:31:19.046Z,6.83
2023-03-12T19:33:45.457Z,10.10
2023-03-12T19:36:11.867Z,4.57
2023-03-12T19:38:38.432Z,6.20
2023-03-12T19:41:08.450Z,4.80
2023-03-12T19:43:35.630Z,10.87
2023-03-12T19:46:02.099Z,8.33
2023-03-12T19:48:28.605Z,3.70
2023-03-12T19:50:55.865Z,6.73
2023-03-12T19:53:22.573Z,8.87
2023-03-12T19:55:49.559Z,9.10
2023-03-12T19:58:16.803Z,6.67
2023-03-12T20:00:43.546Z,6.50
2023-03-12T20:03:10.061Z,3.40
2023-03-12T20:05:36.435Z,5.33
2023-03-12T20:08:02.760Z,5.10
2023-03-12T20:10:29.298Z,7.17
2023-03-12T20:12:55.689Z,6.53
2023-03-12T20:15:21.998Z,6.47
2023-03-12T20:17:48.390Z,5.73
2023-03-12T20:20:16.478Z,7.37
2023-03-12T20:22:42.813Z,5.90
2023-03-12T20:25:10.312Z,3.80
2023-03-12T20:27:36.782Z,4.97
2023-03-12T20:30:03.678Z,4.07
2023-03-12T20:32:30.493Z,7.67
2023-03-12T20:34:56.905Z,5.70
2023-03-12T20:37:23.253Z,6.27
2023-03-12T20:39:49.722Z,5.10
2023-03-12T20:42:16.129Z,7.13
2023-03-12T20:44:42.461Z,6.07
2023-03-12T20:47:08.908Z,5.33
2023-03-12T20:49:35.347Z,5.17
2023-03-12T20:52:01.891Z,5.23
2023-03-12T20:54:28.262Z,6.13
2023-03-12T20:56:54.660Z,5.33
2023-03-12T20:59:21.047Z,3.13
2023-03-12T21:01:47.429Z,6.57
2023-03-12T21:04:14.385Z,8.40
2023-03-12T21:06:40.772Z,4.00
2023-03-12T21:09:07.300Z,6.00
2023-03-12T21:11:33.829Z,8.50
2023-03-12T21:14:00.153Z,7.77
2023-03-12T21:16:26.600Z,6.00
2023-03-12T21:18:57.199Z,4.80
2023-03-12T21:21:23.678Z,7.53
2023-03-12T21:23:50.120Z,6.53
2023-03-12T21:26:18.226Z,6.20
2023-03-12T21:28:45.166Z,12.57
2023-03-12T21:31:13.223Z,13.20
2023-03-12T21:33:40.063Z,5.07
2023-03-12T21:36:08.827Z,7.70
2023-03-12T21:38:36.378Z,5.53
2023-03-12T21:41:08.548Z,7.97
2023-03-12T21:43:34.987Z,7.73
2023-03-12T21:46:09.221Z,6.47
2023-03-12T21:48:36.206Z,4.80
2023-03-12T21:51:04.723Z,5.90
2023-03-12T21:53:31.398Z,6.37
2023-03-12T21:55:59.416Z,4.60
2023-03-12T21:58:26.206Z,6.50
2023-03-12T22:00:52.609Z,10.53
2023-03-12T22:03:18.996Z,8.40
2023-03-12T22:05:50.777Z,5.77
2023-03-12T22:08:17.144Z,3.23
2023-03-12T22:10:45.217Z,4.80
2023-03-12T22:13:11.928Z,5.27
2023-03-12T22:15:38.504Z,5.70
2023-03-12T22:18:04.891Z,9.10
2023-03-12T22:20:34.077Z,5.83
2023-03-12T22:23:00.870Z,6.43
2023-03-12T22:25:27.235Z,5.73
2023-03-12T22:27:53.581Z,4.87
2023-03-12T22:30:19.962Z,6.83
2023-03-12T22:32:46.363Z,5.20
2023-03-12T22:35:12.799Z,5.17
2023-03-12T22:37:39.172Z,5.83
2023-03-12T22:40:07.055Z,4.67
2023-03-12T22:42:33.893Z,4.70
2023-03-12T22:45:00.241Z,8.30
2023-03-12T22:47:26.641Z,3.50
2023-03-12T22:49:53.038Z,10.10
2023-03-12T22:52:19.416Z,5.23
2023-03-12T22:54:45.776Z,4.47
2023-03-12T22:57:12.141Z,4.80
2023-03-12T22:59:38.476Z,4.33
2023-03-12T23:02:04.901Z,5.83
2023-03-12T23:04:31.348Z,4.97
2023-03-12T23:07:12.970Z,7.83
2023-03-12T23:09:40.250Z,3.20
2023-03-12T23:12:06.949Z,8.90
2023-03-12T23:14:33.959Z,5.10
2023-03-12T23:17:00.292Z,3.97
2023-03-12T23:19:32.246Z,5.73
2023-03-12T23:21:58.574Z,3.87
2023-03-12T23:24:25.013Z,3.83
2023-03-12T23:26:51.366Z,6.20
2023-03-12T23:29:17.726Z,5.70
2023-03-12T23:31:44.114Z,2.80
2023-03-12T23:34:10.506Z,8.33
2023-03-12T23:36:36.875Z,3.90
2023-03-12T23:39:03.628Z,4.93
2023-03-12T23:41:30.002Z,3.83
2023-03-12T23:43:57.293Z,5.27
2023-03-12T23:46:24.166Z,6.10
2023-03-12T23:48:50.602Z,6.67
2023-03-12T23:51:20.082Z,4.20
2023-03-12T23:53:49.105Z,6.77
2023-03-12T23:56:22.028Z,6.13
2023-03-12T23:58:49.061Z,5.33
